sensor_id;sensor_type;location;lat;lon;timestamp;P1;durP1;ratioP1;P2;durP2;ratioP2
5121;SDS011;2563;52.242;7.956;2023-03-14T00:00:59;9.13;;;2.53;;
5121;SDS011;2563;52.242;7.956;2023-03-14T00:03:24;7.00;;;2.60;;
5121;SDS011;2563;52.242;7.956;2023-03-14T00:05:50;10.43;;;2.00;;
5121;SDS011;2563;52.242;7.956;2023-03-14T00:08:15;4.60;;;1.70;;
5121;SDS011;2563;52.242;7.956;2023-03-14T00:10:41;9.03;;;2.37;;
5121;SDS011;2563;52.242;7.956;2023-03-14T00:13:07;20.10;;;2.33;;
5121;SDS011;2563;52.242;7.956;2023-03-14T00:15:32;8.73;;;2.00;;
5121;SDS011;2563;52.242;7.956;2023-03-14T00:17:59;5.50;;;1.80;;
5121;SDS011;2563;52.242;7.956;2023-03-14T00:20:25;11.13;;;2.50;;
5121;SDS011;2563;52.242;7.956;2023-03-14T00:22:50;6.97;;;1.97;;
5121;SDS011;2563;52.242;7.956;2023-03-14T00:25:16;5.37;;;1.67;;
5121;SDS011;2563;52.242;7.956;2023-03-14T00:27:42;10.27;;;2.40;;
5121;SDS011;2563;52.242;7.956;2023-03-14T00:30:07;7.87;;;1.60;;
5121;SDS011;2563;52.242;7.956;2023-03-14T00:32:33;5.50;;;2.00;;
5121;SDS011;2563;52.242;7.956;2023-03-14T00:34:59;6.63;;;2.77;;
5121;SDS011;2563;52.242;7.956;2023-03-14T00:37:25;11.87;;;1.80;;
5121;SDS011;2563;52.242;7.956;2023-03-14T00:39:51;6.23;;;1.40;;
5121;SDS011;2563;52.242;7.956;2023-03-14T00:42:17;5.20;;;1.80;;
5121;SDS011;2563;52.242;7.956;2023-03-14T00:44:42;4.33;;;1.53;;
5121;SDS011;2563;52.242;7.956;2023-03-14T00:47:07;7.10;;;2.20;;
5121;SDS011;2563;52.242;7.956;2023-03-14T00:49:33;5.40;;;2.10;;
5121;SDS011;2563;52.242;7.956;2023-03-14T00:51:58;6.93;;;2.20;;
5121;SDS011;2563;52.242;7.956;2023-03-14T00:54:23;5.30;;;1.60;;
5121;SDS011;2563;52.242;7.956;2023-03-14T00:56:49;7.27;;;1.80;;
5121;SDS011;2563;52.242;7.956;2023-03-14T00:59:15;12.53;;;1.83;;
5121;SDS011;2563;52.242;7.956;2023-03-14T01:01:41;4.90;;;1.80;;
5121;SDS011;2563;52.242;7.956;2023-03-14T01:04:07;5.47;;;1.63;;
5121;SDS011;2563;52.242;7.956;2023-03-14T01:06:32;6.63;;;1.77;;
5121;SDS011;2563;52.242;7.956;2023-03-14T01:08:58;16.83;;;2.07;;
5121;SDS011;2563;52.242;7.956;2023-03-14T01:11:25;7.20;;;1.37;;
5121;SDS011;2563;52.242;7.956;2023-03-14T01:13:53;11.57;;;1.40;;
5121;SDS011;2563;52.242;7.956;2023-03-14T01:16:19;7.90;;;2.07;;
5121;SDS011;2563;52.242;7.956;2023-03-14T01:18:46;6.23;;;2.00;;
5121;SDS011;2563;52.242;7.956;2023-03-14T01:23:43;8.00;;;1.93;;
5121;SDS011;2563;52.242;7.956;2023-03-14T01:26:10;7.63;;;1.57;;
5121;SDS011;2563;52.242;7.956;2023-03-14T01:28:37;15.53;;;1.77;;
5121;SDS011;2563;52.242;7.956;2023-03-14T01:31:03;5.83;;;1.27;;
5121;SDS011;2563;52.242;7.956;2023-03-14T01:33:29;5.70;;;1.60;;
5121;SDS011;2563;52.242;7.956;2023-03-14T01:35:55;5.70;;;1.43;;
5121;SDS011;2563;52.242;7.956;2023-03-14T01:38:20;9.10;;;1.63;;
5121;SDS011;2563;52.242;7.956;2023-03-14T01:40:45;9.73;;;1.60;;
5121;SDS011;2563;52.242;7.956;2023-03-14T01:43:15;7.83;;;1.90;;
5121;SDS011;2563;52.242;7.956;2023-03-14T01:46:44;8.20;;;1.80;;
5121;SDS011;2563;52.242;7.956;2023-03-14T01:48:57;7.93;;;1.77;;
5121;SDS011;2563;52.242;7.956;2023-03-14T01:51:29;4.87;;;1.23;;
5121;SDS011;2563;52.242;7.956;2023-03-14T01:54:13;10.70;;;1.60;;
5121;SDS011;2563;52.242;7.956;2023-03-14T01:56:43;6.83;;;1.70;;
5121;SDS011;2563;52.242;7.956;2023-03-14T01:59:13;7.40;;;2.23;;
5121;SDS011;2563;52.242;7.956;2023-03-14T02:01:38;8.47;;;1.67;;
5121;SDS011;2563;52.242;7.956;2023-03-14T02:04:07;7.53;;;1.63;;
5121;SDS011;2563;52.242;7.956;2023-03-14T02:06:35;12.30;;;1.87;;
5121;SDS011;2563;52.242;7.956;2023-03-14T02:09:07;7.07;;;1.80;;
5121;SDS011;2563;52.242;7.956;2023-03-14T02:11:32;10.67;;;2.03;;
5121;SDS011;2563;52.242;7.956;2023-03-14T02:13:58;6.47;;;1.87;;
5121;SDS011;2563;52.242;7.956;2023-03-14T02:16:24;10.20;;;2.50;;
5121;SDS011;2563;52.242;7.956;2023-03-14T02:18:50;6.87;;;2.10;;
5121;SDS011;2563;52.242;7.956;2023-03-14T02:24:11;5.67;;;1.87;;
5121;SDS011;2563;52.242;7.956;2023-03-14T02:29:25;7.90;;;1.77;;
5121;SDS011;2563;52.242;7.956;2023-03-14T02:31:52;7.73;;;2.20;;
5121;SDS011;2563;52.242;7.956;2023-03-14T02:34:18;4.77;;;1.83;;
5121;SDS011;2563;52.242;7.956;2023-03-14T02:36:43;6.43;;;1.87;;
5121;SDS011;2563;52.242;7.956;2023-03-14T02:39:29;7.33;;;2.10;;
5121;SDS011;2563;52.242;7.956;2023-03-14T02:42:01;6.67;;;1.77;;
5121;SDS011;2563;52.242;7.956;2023-03-14T02:44:27;4.73;;;1.83;;
5121;SDS011;2563;52.242;7.956;2023-03-14T02:46:52;6.67;;;1.83;;
5121;SDS011;2563;52.242;7.956;2023-03-14T02:49:18;6.30;;;1.60;;
5121;SDS011;2563;52.242;7.956;2023-03-14T02:51:43;6.43;;;1.93;;
5121;SDS011;2563;52.242;7.956;2023-03-14T02:54:10;7.23;;;1.60;;
5121;SDS011;2563;52.242;7.956;2023-03-14T02:56:35;7.20;;;1.40;;
5121;SDS011;2563;52.242;7.956;2023-03-14T02:59:02;8.60;;;2.03;;
5121;SDS011;2563;52.242;7.956;2023-03-14T03:01:29;5.83;;;1.70;;
5121;SDS011;2563;52.242;7.956;2023-03-14T03:03:54;7.50;;;1.80;;
5121;SDS011;2563;52.242;7.956;2023-03-14T03:06:20;11.30;;;1.70;;
5121;SDS011;2563;52.242;7.956;2023-03-14T03:08:45;5.07;;;1.40;;
5121;SDS011;2563;52.242;7.956;2023-03-14T03:11:11;12.73;;;1.60;;
5121;SDS011;2563;52.242;7.956;2023-03-14T03:13:36;11.53;;;1.40;;
5121;SDS011;2563;52.242;7.956;2023-03-14T03:16:01;7.67;;;1.30;;
5121;SDS011;2563;52.242;7.956;2023-03-14T03:18:27;7.07;;;1.60;;
5121;SDS011;2563;52.242;7.956;2023-03-14T03:20:53;5.40;;;1.27;;
5121;SDS011;2563;52.242;7.956;2023-03-14T03:23:18;4.70;;;1.40;;
5121;SDS011;2563;52.242;7.956;2023-03-14T03:25:47;4.60;;;1.20;;
5121;SDS011;2563;52.242;7.956;2023-03-14T03:28:14;7.23;;;1.67;;
5121;SDS011;2563;52.242;7.956;2023-03-14T03:30:40;8.70;;;2.20;;
5121;SDS011;2563;52.242;7.956;2023-03-14T03:33:06;4.17;;;1.40;;
5121;SDS011;2563;52.242;7.956;2023-03-14T03:35:32;5.30;;;1.23;;
5121;SDS011;2563;52.242;7.956;2023-03-14T03:37:58;6.37;;;1.27;;
5121;SDS011;2563;52.242;7.956;2023-03-14T03:40:23;5.23;;;1.33;;
5121;SDS011;2563;52.242;7.956;2023-03-14T03:42:48;3.50;;;1.37;;
5121;SDS011;2563;52.242;7.956;2023-03-14T03:45:14;5.40;;;2.17;;
5121;SDS011;2563;52.242;7.956;2023-03-14T03:47:39;6.30;;;1.80;;
5121;SDS011;2563;52.242;7.956;2023-03-14T03:50:05;13.93;;;1.80;;
5121;SDS011;2563;52.242;7.956;2023-03-14T03:52:31;6.47;;;1.50;;
5121;SDS011;2563;52.242;7.956;2023-03-14T03:54:56;6.40;;;1.53;;
5121;SDS011;2563;52.242;7.956;2023-03-14T03:57:21;7.60;;;1.50;;
5121;SDS011;2563;52.242;7.956;2023-03-14T03:59:47;4.70;;;1.20;;
5121;SDS011;2563;52.242;7.956;2023-03-14T04:02:12;6.97;;;1.50;;
5121;SDS011;2563;52.242;7.956;2023-03-14T04:04:37;7.70;;;2.23;;
5121;SDS011;2563;52.242;7.956;2023-03-14T04:07:03;4.50;;;1.30;;
5121;SDS011;2563;52.242;7.956;2023-03-14T04:09:29;6.73;;;1.13;;
5121;SDS011;2563;52.242;7.956;2023-03-14T04:11:55;6.70;;;1.50;;
5121;SDS011;2563;52.242;7.956;2023-03-14T04:14:20;6.27;;;1.47;;
5121;SDS011;2563;52.242;7.956;2023-03-14T04:16:46;9.63;;;1.47;;
5121;SDS011;2563;52.242;7.956;2023-03-14T04:19:12;6.30;;;1.70;;
5121;SDS011;2563;52.242;7.956;2023-03-14T04:21:37;7.63;;;1.77;;
5121;SDS011;2563;52.242;7.956;2023-03-14T04:24:05;9.30;;;1.87;;
5121;SDS011;2563;52.242;7.956;2023-03-14T04:26:31;5.03;;;1.97;;
5121;SDS011;2563;52.242;7.956;2023-03-14T04:28:56;11.47;;;2.00;;
5121;SDS011;2563;52.242;7.956;2023-03-14T04:31:22;7.67;;;2.20;;
5121;SDS011;2563;52.242;7.956;2023-03-14T04:33:47;6.57;;;1.90;;
5121;SDS011;2563;52.242;7.956;2023-03-14T04:36:13;6.93;;;1.90;;
5121;SDS011;2563;52.242;7.956;2023-03-14T04:38:39;5.57;;;2.33;;
5121;SDS011;2563;52.242;7.956;2023-03-14T04:41:04;17.43;;;3.10;;
5121;SDS011;2563;52.242;7.956;2023-03-14T04:43:30;19.97;;;4.63;;
5121;SDS011;2563;52.242;7.956;2023-03-14T04:45:56;6.80;;;2.63;;
5121;SDS011;2563;52.242;7.956;2023-03-14T04:48:23;9.63;;;2.90;;
5121;SDS011;2563;52.242;7.956;2023-03-14T04:50:49;11.10;;;3.00;;
5121;SDS011;2563;52.242;7.956;2023-03-14T04:53:15;19.13;;;2.80;;
5121;SDS011;2563;52.242;7.956;2023-03-14T04:55:42;11.50;;;4.00;;
5121;SDS011;2563;52.242;7.956;2023-03-14T04:58:12;8.10;;;2.63;;
5121;SDS011;2563;52.242;7.956;2023-03-14T05:00:37;10.10;;;3.97;;
5121;SDS011;2563;52.242;7.956;2023-03-14T05:03:02;9.50;;;2.60;;
5121;SDS011;2563;52.242;7.956;2023-03-14T05:05:28;8.43;;;2.87;;
5121;SDS011;2563;52.242;7.956;2023-03-14T05:07:53;9.03;;;3.20;;
5121;SDS011;2563;52.242;7.956;2023-03-14T05:10:18;10.77;;;3.07;;
5121;SDS011;2563;52.242;7.956;2023-03-14T05:12:44;8.97;;;3.00;;
5121;SDS011;2563;52.242;7.956;2023-03-14T05:15:09;9.33;;;3.70;;
5121;SDS011;2563;52.242;7.956;2023-03-14T05:17:35;12.20;;;3.23;;
5121;SDS011;2563;52.242;7.956;2023-03-14T05:20:01;8.20;;;2.97;;
5121;SDS011;2563;52.242;7.956;2023-03-14T05:22:32;11.33;;;4.27;;
5121;SDS011;2563;52.242;7.956;2023-03-14T05:24:57;10.03;;;3.70;;
5121;SDS011;2563;52.242;7.956;2023-03-14T05:27:24;12.00;;;4.07;;
5121;SDS011;2563;52.242;7.956;2023-03-14T05:29:49;11.70;;;3.70;;
5121;SDS011;2563;52.242;7.956;2023-03-14T05:32:14;16.63;;;3.53;;
5121;SDS011;2563;52.242;7.956;2023-03-14T05:34:40;10.77;;;3.40;;
5121;SDS011;2563;52.242;7.956;2023-03-14T05:37:05;14.00;;;3.93;;
5121;SDS011;2563;52.242;7.956;2023-03-14T05:39:30;11.40;;;3.40;;
5121;SDS011;2563;52.242;7.956;2023-03-14T05:41:56;12.70;;;3.70;;
5121;SDS011;2563;52.242;7.956;2023-03-14T05:44:21;17.10;;;4.23;;
5121;SDS011;2563;52.242;7.956;2023-03-14T05:46:47;11.70;;;3.50;;
5121;SDS011;2563;52.242;7.956;2023-03-14T05:49:12;9.30;;;2.90;;
5121;SDS011;2563;52.242;7.956;2023-03-14T05:51:38;6.93;;;2.90;;
5121;SDS011;2563;52.242;7.956;2023-03-14T05:54:03;13.10;;;2.57;;
5121;SDS011;2563;52.242;7.956;2023-03-14T05:56:29;13.33;;;3.10;;
5121;SDS011;2563;52.242;7.956;2023-03-14T05:58:54;12.67;;;2.93;;
5121;SDS011;2563;52.242;7.956;2023-03-14T06:01:19;12.13;;;2.60;;
5121;SDS011;2563;52.242;7.956;2023-03-14T06:03:45;7.10;;;2.23;;
5121;SDS011;2563;52.242;7.956;2023-03-14T06:06:10;7.43;;;2.57;;
5121;SDS011;2563;52.242;7.956;2023-03-14T06:08:35;13.67;;;3.20;;
5121;SDS011;2563;52.242;7.956;2023-03-14T06:11:02;9.23;;;2.67;;
5121;SDS011;2563;52.242;7.956;2023-03-14T06:13:28;11.07;;;2.30;;
5121;SDS011;2563;52.242;7.956;2023-03-14T06:15:53;8.23;;;2.80;;
5121;SDS011;2563;52.242;7.956;2023-03-14T06:18:18;9.37;;;1.90;;
5121;SDS011;2563;52.242;7.956;2023-03-14T06:20:44;8.00;;;2.73;;
5121;SDS011;2563;52.242;7.956;2023-03-14T06:23:10;10.30;;;2.13;;
5121;SDS011;2563;52.242;7.956;2023-03-14T06:25:35;9.57;;;2.27;;
5121;SDS011;2563;52.242;7.956;2023-03-14T06:28:01;7.60;;;1.97;;
5121;SDS011;2563;52.242;7.956;2023-03-14T06:30:27;4.23;;;1.50;;
5121;SDS011;2563;52.242;7.956;2023-03-14T06:32:57;5.37;;;1.60;;
5121;SDS011;2563;52.242;7.956;2023-03-14T06:35:22;5.43;;;1.90;;
5121;SDS011;2563;52.242;7.956;2023-03-14T06:37:48;3.50;;;1.10;;
5121;SDS011;2563;52.242;7.956;2023-03-14T06:40:14;7.30;;;2.33;;
5121;SDS011;2563;52.242;7.956;2023-03-14T06:42:45;4.10;;;1.03;;
5121;SDS011;2563;52.242;7.956;2023-03-14T06:45:11;7.60;;;1.53;;
5121;SDS011;2563;52.242;7.956;2023-03-14T06:47:36;7.93;;;1.50;;
5121;SDS011;2563;52.242;7.956;2023-03-14T06:50:03;3.03;;;1.00;;
5121;SDS011;2563;52.242;7.956;2023-03-14T06:52:30;5.27;;;1.40;;
5121;SDS011;2563;52.242;7.956;2023-03-14T06:54:55;4.47;;;1.43;;
5121;SDS011;2563;52.242;7.956;2023-03-14T06:57:20;5.40;;;1.33;;
5121;SDS011;2563;52.242;7.956;2023-03-14T06:59:46;6.47;;;1.57;;
5121;SDS011;2563;52.242;7.956;2023-03-14T07:02:11;6.90;;;1.00;;
5121;SDS011;2563;52.242;7.956;2023-03-14T07:04:37;3.77;;;1.20;;
5121;SDS011;2563;52.242;7.956;2023-03-14T07:07:03;3.40;;;1.03;;
5121;SDS011;2563;52.242;7.956;2023-03-14T07:09:29;5.07;;;1.33;;
5121;SDS011;2563;52.242;7.956;2023-03-14T07:11:54;4.60;;;1.10;;
5121;SDS011;2563;52.242;7.956;2023-03-14T07:14:19;4.57;;;1.40;;
5121;SDS011;2563;52.242;7.956;2023-03-14T07:16:45;5.50;;;1.30;;
5121;SDS011;2563;52.242;7.956;2023-03-14T07:19:10;3.90;;;1.20;;
5121;SDS011;2563;52.242;7.956;2023-03-14T07:21:35;3.33;;;1.10;;
5121;SDS011;2563;52.242;7.956;2023-03-14T07:24:01;6.03;;;1.70;;
5121;SDS011;2563;52.242;7.956;2023-03-14T07:26:26;4.30;;;1.40;;
5121;SDS011;2563;52.242;7.956;2023-03-14T07:28:52;4.23;;;1.40;;
5121;SDS011;2563;52.242;7.956;2023-03-14T07:31:17;4.10;;;1.50;;
5121;SDS011;2563;52.242;7.956;2023-03-14T07:33:43;4.50;;;1.73;;
5121;SDS011;2563;52.242;7.956;2023-03-14T07:36:08;4.80;;;1.77;;
5121;SDS011;2563;52.242;7.956;2023-03-14T07:38:34;3.60;;;1.60;;
5121;SDS011;2563;52.242;7.956;2023-03-14T07:41:04;5.70;;;2.70;;
5121;SDS011;2563;52.242;7.956;2023-03-14T07:43:30;4.50;;;1.90;;
5121;SDS011;2563;52.242;7.956;2023-03-14T07:45:57;5.80;;;2.10;;
5121;SDS011;2563;52.242;7.956;2023-03-14T07:48:22;4.40;;;2.20;;
5121;SDS011;2563;52.242;7.956;2023-03-14T07:50:50;3.77;;;2.27;;
5121;SDS011;2563;52.242;7.956;2023-03-14T07:53:17;8.03;;;2.77;;
5121;SDS011;2563;52.242;7.956;2023-03-14T07:55:42;6.63;;;3.00;;
5121;SDS011;2563;52.242;7.956;2023-03-14T07:58:08;7.50;;;2.30;;
5121;SDS011;2563;52.242;7.956;2023-03-14T08:00:33;7.40;;;2.57;;
5121;SDS011;2563;52.242;7.956;2023-03-14T08:02:59;10.23;;;2.90;;
5121;SDS011;2563;52.242;7.956;2023-03-14T08:05:24;4.63;;;2.30;;
5121;SDS011;2563;52.242;7.956;2023-03-14T08:07:49;5.27;;;2.30;;
5121;SDS011;2563;52.242;7.956;2023-03-14T08:10:15;6.83;;;2.77;;
5121;SDS011;2563;52.242;7.956;2023-03-14T08:12:48;6.83;;;3.13;;
5121;SDS011;2563;52.242;7.956;2023-03-14T08:15:18;4.87;;;2.60;;
5121;SDS011;2563;52.242;7.956;2023-03-14T08:17:44;6.20;;;2.60;;
5121;SDS011;2563;52.242;7.956;2023-03-14T08:20:10;5.10;;;2.57;;
5121;SDS011;2563;52.242;7.956;2023-03-14T08:22:37;7.23;;;3.37;;
5121;SDS011;2563;52.242;7.956;2023-03-14T08:25:02;5.27;;;2.53;;
5121;SDS011;2563;52.242;7.956;2023-03-14T08:27:28;5.10;;;3.10;;
5121;SDS011;2563;52.242;7.956;2023-03-14T08:29:54;5.80;;;3.07;;
5121;SDS011;2563;52.242;7.956;2023-03-14T08:32:19;5.53;;;2.77;;
5121;SDS011;2563;52.242;7.956;2023-03-14T08:34:45;5.80;;;3.03;;
5121;SDS011;2563;52.242;7.956;2023-03-14T08:37:11;9.43;;;3.80;;
5121;SDS011;2563;52.242;7.956;2023-03-14T08:39:36;5.37;;;2.93;;
5121;SDS011;2563;52.242;7.956;2023-03-14T08:42:02;6.10;;;3.00;;
5121;SDS011;2563;52.242;7.956;2023-03-14T08:44:28;5.67;;;3.57;;
5121;SDS011;2563;52.242;7.956;2023-03-14T08:46:53;5.00;;;3.03;;
5121;SDS011;2563;52.242;7.956;2023-03-14T08:49:19;5.30;;;3.17;;
5121;SDS011;2563;52.242;7.956;2023-03-14T08:51:44;4.90;;;2.90;;
5121;SDS011;2563;52.242;7.956;2023-03-14T08:54:10;7.20;;;3.00;;
5121;SDS011;2563;52.242;7.956;2023-03-14T08:56:36;5.30;;;2.50;;
5121;SDS011;2563;52.242;7.956;2023-03-14T08:59:03;6.07;;;2.87;;
5121;SDS011;2563;52.242;7.956;2023-03-14T09:01:28;4.63;;;2.43;;
5121;SDS011;2563;52.242;7.956;2023-03-14T09:03:54;6.30;;;3.10;;
5121;SDS011;2563;52.242;7.956;2023-03-14T09:06:19;4.10;;;2.40;;
5121;SDS011;2563;52.242;7.956;2023-03-14T09:08:44;5.67;;;2.97;;
5121;SDS011;2563;52.242;7.956;2023-03-14T09:11:10;5.13;;;2.77;;
5121;SDS011;2563;52.242;7.956;2023-03-14T09:13:36;5.90;;;3.30;;
5121;SDS011;2563;52.242;7.956;2023-03-14T09:16:02;5.47;;;2.73;;
5121;SDS011;2563;52.242;7.956;2023-03-14T09:18:28;5.10;;;2.57;;
5121;SDS011;2563;52.242;7.956;2023-03-14T09:20:54;5.53;;;2.63;;
5121;SDS011;2563;52.242;7.956;2023-03-14T09:23:20;5.43;;;2.10;;
5121;SDS011;2563;52.242;7.956;2023-03-14T09:25:45;3.73;;;1.70;;
5121;SDS011;2563;52.242;7.956;2023-03-14T09:28:11;2.57;;;0.87;;
5121;SDS011;2563;52.242;7.956;2023-03-14T09:30:38;3.27;;;0.87;;
5121;SDS011;2563;52.242;7.956;2023-03-14T09:33:03;2.10;;;0.40;;
5121;SDS011;2563;52.242;7.956;2023-03-14T09:35:28;2.23;;;0.50;;
5121;SDS011;2563;52.242;7.956;2023-03-14T09:37:54;2.50;;;0.50;;
5121;SDS011;2563;52.242;7.956;2023-03-14T09:40:19;2.10;;;0.40;;
5121;SDS011;2563;52.242;7.956;2023-03-14T09:42:50;3.10;;;0.50;;
5121;SDS011;2563;52.242;7.956;2023-03-14T09:45:39;2.10;;;0.40;;
5121;SDS011;2563;52.242;7.956;2023-03-14T09:48:05;2.40;;;0.50;;
5121;SDS011;2563;52.242;7.956;2023-03-14T09:50:41;2.30;;;0.40;;
5121;SDS011;2563;52.242;7.956;2023-03-14T09:53:11;1.87;;;0.40;;
5121;SDS011;2563;52.242;7.956;2023-03-14T09:55:39;2.77;;;0.53;;
5121;SDS011;2563;52.242;7.956;2023-03-14T09:58:11;2.47;;;0.50;;
5121;SDS011;2563;52.242;7.956;2023-03-14T10:00:39;3.30;;;0.40;;
5121;SDS011;2563;52.242;7.956;2023-03-14T10:05:46;2.10;;;0.43;;
5121;SDS011;2563;52.242;7.956;2023-03-14T10:08:14;2.43;;;0.50;;
5121;SDS011;2563;52.242;7.956;2023-03-14T10:10:40;3.43;;;0.60;;
5121;SDS011;2563;52.242;7.956;2023-03-14T10:13:16;3.73;;;0.40;;
5121;SDS011;2563;52.242;7.956;2023-03-14T10:15:43;4.47;;;0.60;;
5121;SDS011;2563;52.242;7.956;2023-03-14T10:18:32;3.23;;;0.40;;
5121;SDS011;2563;52.242;7.956;2023-03-14T10:21:04;2.00;;;0.40;;
5121;SDS011;2563;52.242;7.956;2023-03-14T10:23:32;2.10;;;0.50;;
5121;SDS011;2563;52.242;7.956;2023-03-14T10:28:47;2.30;;;0.50;;
5121;SDS011;2563;52.242;7.956;2023-03-14T10:31:16;2.70;;;0.50;;
5121;SDS011;2563;52.242;7.956;2023-03-14T10:33:42;2.10;;;0.43;;
5121;SDS011;2563;52.242;7.956;2023-03-14T10:36:24;4.67;;;0.57;;
5121;SDS011;2563;52.242;7.956;2023-03-14T10:39:37;2.60;;;0.50;;
5121;SDS011;2563;52.242;7.956;2023-03-14T10:41:46;4.70;;;0.40;;
5121;SDS011;2563;52.242;7.956;2023-03-14T10:44:13;2.00;;;0.40;;
5121;SDS011;2563;52.242;7.956;2023-03-14T10:46:42;1.90;;;0.40;;
5121;SDS011;2563;52.242;7.956;2023-03-14T10:49:16;3.60;;;0.50;;
5121;SDS011;2563;52.242;7.956;2023-03-14T10:51:51;3.20;;;0.40;;
5121;SDS011;2563;52.242;7.956;2023-03-14T10:54:21;2.20;;;0.40;;
5121;SDS011;2563;52.242;7.956;2023-03-14T10:56:58;2.00;;;0.50;;
5121;SDS011;2563;52.242;7.956;2023-03-14T10:59:26;2.50;;;0.50;;
5121;SDS011;2563;52.242;7.956;2023-03-14T11:19:03;2.20;;;0.50;;
5121;SDS011;2563;52.242;7.956;2023-03-14T11:27:17;3.20;;;0.60;;
5121;SDS011;2563;52.242;7.956;2023-03-14T11:29:50;2.70;;;0.80;;
5121;SDS011;2563;52.242;7.956;2023-03-14T11:35:16;4.63;;;0.70;;
5121;SDS011;2563;52.242;7.956;2023-03-14T11:37:52;6.03;;;1.10;;
5121;SDS011;2563;52.242;7.956;2023-03-14T11:40:39;4.17;;;0.60;;
5121;SDS011;2563;52.242;7.956;2023-03-14T11:45:47;3.83;;;1.00;;
5121;SDS011;2563;52.242;7.956;2023-03-14T11:48:17;8.57;;;1.40;;
5121;SDS011;2563;52.242;7.956;2023-03-14T11:50:46;12.67;;;1.47;;
5121;SDS011;2563;52.242;7.956;2023-03-14T11:53:40;5.77;;;1.00;;
5121;SDS011;2563;52.242;7.956;2023-03-14T11:56:24;5.70;;;1.00;;
5121;SDS011;2563;52.242;7.956;2023-03-14T11:58:55;7.70;;;1.20;;
5121;SDS011;2563;52.242;7.956;2023-03-14T12:01:27;13.30;;;1.30;;
5121;SDS011;2563;52.242;7.956;2023-03-14T12:04:05;8.97;;;1.17;;
5121;SDS011;2563;52.242;7.956;2023-03-14T12:09:12;10.27;;;1.50;;
5121;SDS011;2563;52.242;7.956;2023-03-14T12:16:47;6.47;;;0.80;;
5121;SDS011;2563;52.242;7.956;2023-03-14T12:21:49;4.60;;;1.20;;
5121;SDS011;2563;52.242;7.956;2023-03-14T12:24:24;9.20;;;1.40;;
5121;SDS011;2563;52.242;7.956;2023-03-14T12:26:54;10.80;;;1.40;;
5121;SDS011;2563;52.242;7.956;2023-03-14T12:29:22;2.93;;;0.70;;
5121;SDS011;2563;52.242;7.956;2023-03-14T12:31:49;7.63;;;1.30;;
5121;SDS011;2563;52.242;7.956;2023-03-14T12:34:32;13.90;;;1.60;;
5121;SDS011;2563;52.242;7.956;2023-03-14T12:39:43;12.07;;;1.57;;
5121;SDS011;2563;52.242;7.956;2023-03-14T12:44:54;20.30;;;2.10;;
5121;SDS011;2563;52.242;7.956;2023-03-14T12:47:41;11.70;;;1.70;;
5121;SDS011;2563;52.242;7.956;2023-03-14T12:50:15;18.80;;;2.80;;
5121;SDS011;2563;52.242;7.956;2023-03-14T12:58:44;12.57;;;2.60;;
5121;SDS011;2563;52.242;7.956;2023-03-14T13:01:19;12.13;;;2.43;;
5121;SDS011;2563;52.242;7.956;2023-03-14T13:06:11;8.30;;;1.77;;
5121;SDS011;2563;52.242;7.956;2023-03-14T13:11:03;13.00;;;1.70;;
5121;SDS011;2563;52.242;7.956;2023-03-14T13:13:34;15.63;;;2.40;;
5121;SDS011;2563;52.242;7.956;2023-03-14T13:16:02;14.17;;;2.20;;
5121;SDS011;2563;52.242;7.956;2023-03-14T13:21:07;11.17;;;2.07;;
5121;SDS011;2563;52.242;7.956;2023-03-14T13:23:37;5.73;;;1.57;;
5121;SDS011;2563;52.242;7.956;2023-03-14T13:26:03;10.17;;;1.40;;
5121;SDS011;2563;52.242;7.956;2023-03-14T13:28:37;10.93;;;1.60;;
5121;SDS011;2563;52.242;7.956;2023-03-14T13:31:03;11.00;;;1.83;;
5121;SDS011;2563;52.242;7.956;2023-03-14T13:33:30;5.20;;;1.20;;
5121;SDS011;2563;52.242;7.956;2023-03-14T13:35:57;11.07;;;2.00;;
5121;SDS011;2563;52.242;7.956;2023-03-14T13:38:27;7.50;;;1.40;;
5121;SDS011;2563;52.242;7.956;2023-03-14T13:40:55;8.03;;;1.20;;
5121;SDS011;2563;52.242;7.956;2023-03-14T13:43:34;6.77;;;1.70;;
5121;SDS011;2563;52.242;7.956;2023-03-14T13:46:04;13.17;;;2.23;;
5121;SDS011;2563;52.242;7.956;2023-03-14T13:48:32;14.37;;;1.80;;
5121;SDS011;2563;52.242;7.956;2023-03-14T13:51:07;5.40;;;1.70;;
5121;SDS011;2563;52.242;7.956;2023-03-14T13:53:43;11.63;;;2.00;;
5121;SDS011;2563;52.242;7.956;2023-03-14T13:56:14;9.30;;;1.47;;
5121;SDS011;2563;52.242;7.956;2023-03-14T13:58:40;11.57;;;1.60;;
5121;SDS011;2563;52.242;7.956;2023-03-14T14:01:10;7.13;;;1.17;;
5121;SDS011;2563;52.242;7.956;2023-03-14T14:03:40;9.90;;;1.37;;
5121;SDS011;2563;52.242;7.956;2023-03-14T14:06:50;7.90;;;1.50;;
5121;SDS011;2563;52.242;7.956;2023-03-14T14:09:10;8.90;;;1.13;;
5121;SDS011;2563;52.242;7.956;2023-03-14T14:11:49;4.57;;;1.17;;
5121;SDS011;2563;52.242;7.956;2023-03-14T14:14:26;6.30;;;1.83;;
5121;SDS011;2563;52.242;7.956;2023-03-14T14:16:58;10.00;;;1.17;;
5121;SDS011;2563;52.242;7.956;2023-03-14T14:19:27;10.73;;;1.10;;
5121;SDS011;2563;52.242;7.956;2023-03-14T14:21:55;6.60;;;1.03;;
5121;SDS011;2563;52.242;7.956;2023-03-14T14:24:22;6.60;;;1.07;;
5121;SDS011;2563;52.242;7.956;2023-03-14T14:26:54;7.60;;;1.00;;
5121;SDS011;2563;52.242;7.956;2023-03-14T14:32:15;7.30;;;1.17;;
5121;SDS011;2563;52.242;7.956;2023-03-14T14:34:41;8.10;;;1.13;;
5121;SDS011;2563;52.242;7.956;2023-03-14T14:37:21;6.93;;;1.30;;
5121;SDS011;2563;52.242;7.956;2023-03-14T14:39:48;5.53;;;0.90;;
5121;SDS011;2563;52.242;7.956;2023-03-14T14:42:17;5.80;;;1.30;;
5121;SDS011;2563;52.242;7.956;2023-03-14T14:44:47;3.90;;;0.70;;
5121;SDS011;2563;52.242;7.956;2023-03-14T14:47:16;7.03;;;1.33;;
5121;SDS011;2563;52.242;7.956;2023-03-14T14:49:45;3.17;;;0.80;;
5121;SDS011;2563;52.242;7.956;2023-03-14T14:52:14;5.07;;;0.87;;
5121;SDS011;2563;52.242;7.956;2023-03-14T14:57:22;8.47;;;1.50;;
5121;SDS011;2563;52.242;7.956;2023-03-14T14:59:50;6.73;;;1.10;;
5121;SDS011;2563;52.242;7.956;2023-03-14T15:02:35;10.83;;;1.47;;
5121;SDS011;2563;52.242;7.956;2023-03-14T15:05:16;6.87;;;1.20;;
5121;SDS011;2563;52.242;7.956;2023-03-14T15:07:43;4.40;;;1.07;;
5121;SDS011;2563;52.242;7.956;2023-03-14T15:10:09;5.63;;;0.93;;
5121;SDS011;2563;52.242;7.956;2023-03-14T15:12:36;8.23;;;1.50;;
5121;SDS011;2563;52.242;7.956;2023-03-14T15:15:01;6.63;;;1.40;;
5121;SDS011;2563;52.242;7.956;2023-03-14T15:17:27;5.30;;;1.10;;
5121;SDS011;2563;52.242;7.956;2023-03-14T15:19:52;5.93;;;1.00;;
5121;SDS011;2563;52.242;7.956;2023-03-14T15:22:18;7.00;;;0.83;;
5121;SDS011;2563;52.242;7.956;2023-03-14T15:24:43;6.40;;;1.43;;
5121;SDS011;2563;52.242;7.956;2023-03-14T15:27:11;7.60;;;1.43;;
5121;SDS011;2563;52.242;7.956;2023-03-14T15:29:39;12.57;;;1.50;;
5121;SDS011;2563;52.242;7.956;2023-03-14T15:32:04;4.70;;;1.30;;
5121;SDS011;2563;52.242;7.956;2023-03-14T15:34:30;5.37;;;1.57;;
5121;SDS011;2563;52.242;7.956;2023-03-14T15:36:55;4.57;;;0.80;;
5121;SDS011;2563;52.242;7.956;2023-03-14T15:39:20;6.90;;;0.97;;
5121;SDS011;2563;52.242;7.956;2023-03-14T15:41:46;9.73;;;1.40;;
5121;SDS011;2563;52.242;7.956;2023-03-14T15:44:11;7.57;;;1.43;;
5121;SDS011;2563;52.242;7.956;2023-03-14T15:46:37;8.53;;;1.07;;
5121;SDS011;2563;52.242;7.956;2023-03-14T15:49:02;5.17;;;1.67;;
5121;SDS011;2563;52.242;7.956;2023-03-14T15:51:27;4.20;;;1.13;;
5121;SDS011;2563;52.242;7.956;2023-03-14T15:53:53;6.23;;;0.90;;
5121;SDS011;2563;52.242;7.956;2023-03-14T15:56:19;6.17;;;2.30;;
5121;SDS011;2563;52.242;7.956;2023-03-14T15:58:45;4.90;;;0.90;;
5121;SDS011;2563;52.242;7.956;2023-03-14T16:01:14;7.60;;;1.30;;
5121;SDS011;2563;52.242;7.956;2023-03-14T16:03:40;5.80;;;1.10;;
5121;SDS011;2563;52.242;7.956;2023-03-14T16:06:06;3.80;;;1.00;;
5121;SDS011;2563;52.242;7.956;2023-03-14T16:08:32;5.77;;;1.07;;
5121;SDS011;2563;52.242;7.956;2023-03-14T16:10:58;9.50;;;1.30;;
5121;SDS011;2563;52.242;7.956;2023-03-14T16:13:24;16.83;;;1.37;;
5121;SDS011;2563;52.242;7.956;2023-03-14T16:15:53;6.23;;;1.53;;
5121;SDS011;2563;52.242;7.956;2023-03-14T16:18:20;5.63;;;1.10;;
5121;SDS011;2563;52.242;7.956;2023-03-14T16:20:51;4.70;;;1.27;;
5121;SDS011;2563;52.242;7.956;2023-03-14T16:23:17;6.50;;;0.97;;
5121;SDS011;2563;52.242;7.956;2023-03-14T16:25:43;5.67;;;1.00;;
5121;SDS011;2563;52.242;7.956;2023-03-14T16:28:09;5.50;;;1.23;;
5121;SDS011;2563;52.242;7.956;2023-03-14T16:30:34;2.00;;;0.70;;
5121;SDS011;2563;52.242;7.956;2023-03-14T16:32:59;6.10;;;1.23;;